Flight Track Log - Related Links

Times and Time Zones

All times are in EDT time to prevent confusion due to time zone crossing. See the SLI2469 flight status page for this flight to view local times or setup timezone preferences in your user account.

Time Position Orientation Groundspeed Altitude Reporting Facility
EDT Latitude Longitude Course Direction KTS MPH feet Rate Location/Type
Wed 07:33:15 PM 25.4973 -100.2861 210° Southwest  Level Estimated
Wed 07:34:15 PM 25.4311 -100.3281 210° Southwest  Level Estimated
Wed 07:35:15 PM 25.3648 -100.3701 210° Southwest  Level Estimated
Wed 07:36:15 PM 25.2986 -100.4121 210° Southwest  Level Estimated
Wed 07:37:15 PM 25.2324 -100.4540 210° Southwest  Level Estimated
Wed 07:38:15 PM 25.1661 -100.4958 210° Southwest  Level Estimated
Wed 07:39:15 PM 25.0999 -100.5377 210° Southwest  Level Estimated
Wed 07:40:15 PM 25.0336 -100.5794 210° Southwest  Level Estimated
Wed 07:41:15 PM 24.9673 -100.6211 210° Southwest  Level Estimated
Wed 07:42:15 PM 24.9010 -100.6628 210° Southwest  Level Estimated
Wed 07:43:15 PM 24.8347 -100.7045 210° Southwest  Level Estimated
Wed 07:44:15 PM 24.7684 -100.7460 210° Southwest  Level Estimated
Wed 07:45:15 PM 24.7020 -100.7876 210° Southwest  Level Estimated
Wed 07:46:15 PM 24.6357 -100.8291 210° Southwest  Level Estimated
Wed 07:47:15 PM 24.5693 -100.8705 210° Southwest  Level Estimated
Wed 07:48:15 PM 24.5030 -100.9119 210° Southwest  Level Estimated
Wed 07:49:15 PM 24.4366 -100.9533 210° Southwest  Level Estimated
Wed 07:50:15 PM 24.3702 -100.9947 210° Southwest  Level Estimated
Wed 07:51:15 PM 24.3038 -101.0359 210° Southwest  Level Estimated
Wed 07:52:15 PM 24.2374 -101.0772 210° Southwest  Level Estimated
Wed 07:53:15 PM 24.1710 -101.1184 209° Southwest  Level Estimated
Wed 07:54:15 PM 24.1045 -101.1595 209° Southwest  Level Estimated
Wed 07:55:15 PM 24.0381 -101.2006 209° Southwest  Level Estimated
Wed 07:56:15 PM 23.9716 -101.2417 209° Southwest  Level Estimated
Wed 07:57:15 PM 23.9052 -101.2827 209° Southwest  Level Estimated
Wed 07:58:15 PM 23.8387 -101.3237 209° Southwest  Level Estimated
Wed 07:59:15 PM 23.7722 -101.3646 209° Southwest  Level Estimated
Wed 08:00:15 PM 23.7057 -101.4055 209° Southwest  Level Estimated
Wed 08:01:15 PM 23.6392 -101.4464 209° Southwest  Level Estimated
Wed 08:02:15 PM 23.5727 -101.4872 209° Southwest  Level Estimated
Wed 08:03:15 PM 23.5061 -101.5280 209° Southwest  Level Estimated
Wed 08:04:15 PM 23.4396 -101.5687 209° Southwest  Level Estimated
Wed 08:05:15 PM 23.3730 -101.6094 209° Southwest  Level Estimated
Wed 08:06:15 PM 23.3065 -101.6501 209° Southwest  Level Estimated
Wed 08:07:15 PM 23.2399 -101.6907 209° Southwest  Level Estimated
Wed 08:08:15 PM 23.1733 -101.7313 209° Southwest  Level Estimated
Wed 08:09:15 PM 23.1067 -101.7718 209° Southwest  Level Estimated
Wed 08:10:15 PM 23.0401 -101.8123 209° Southwest  Level Estimated
Wed 08:11:15 PM 22.9735 -101.8528 209° Southwest  Level Estimated
Wed 08:12:15 PM 22.9069 -101.8932 209° Southwest  Level Estimated
Wed 08:13:15 PM 22.8403 -101.9335 209° Southwest  Level Estimated
Wed 08:14:15 PM 22.7736 -101.9739 209° Southwest  Level Estimated
Wed 08:15:15 PM 22.7069 -102.0142 209° Southwest  Level Estimated
Wed 08:16:15 PM 22.6403 -102.0544 209° Southwest  Level Estimated
Wed 08:17:15 PM 22.5736 -102.0946 209° Southwest  Level Estimated
Wed 08:18:15 PM 22.5069 -102.1348 209° Southwest  Level Estimated
Wed 08:19:15 PM 22.4402 -102.1749 209° Southwest  Level Estimated
Wed 08:20:15 PM 22.3735 -102.2150 209° Southwest  Level Estimated
Wed 08:21:15 PM 22.3068 -102.2551 209° Southwest  Level Estimated
Wed 08:22:15 PM 22.2401 -102.2951 209° Southwest  Level Estimated
Wed 08:23:15 PM 22.1733 -102.3351 209° Southwest  Level Estimated
Wed 08:24:15 PM 22.1066 -102.3750 209° Southwest  Level Estimated
Wed 08:25:15 PM 22.0398 -102.4149 209° Southwest  Level Estimated
Wed 08:26:15 PM 21.9731 -102.4548 209° Southwest  Level Estimated
Wed 08:27:15 PM 21.9063 -102.4947 209° Southwest  Level Estimated
Wed 08:28:15 PM 21.8395 -102.5344 209° Southwest  Level Estimated
Wed 08:29:15 PM 21.7727 -102.5742 209° Southwest  Level Estimated
Wed 08:30:15 PM 21.7059 -102.6139 209° Southwest  Level Estimated
Wed 08:31:15 PM 21.6391 -102.6536 209° Southwest  Level Estimated
Wed 08:32:15 PM 21.5723 -102.6933 209° Southwest  Level Estimated
Wed 08:33:15 PM 21.5055 -102.7329 209° Southwest  Level Estimated
Wed 08:34:15 PM 21.4386 -102.7725 209° Southwest  Level Estimated
Wed 08:35:15 PM 21.3718 -102.8120 209° Southwest  Level Estimated
Wed 08:36:15 PM 21.3049 -102.8515 209° Southwest  Level Estimated
Wed 08:37:15 PM 21.2381 -102.8910 209° Southwest  Level Estimated
Wed 08:38:15 PM 21.1712 -102.9304 209° Southwest  Level Estimated
Wed 08:39:15 PM 21.1043 -102.9698 209° Southwest  Level Estimated
Wed 08:40:15 PM 21.0374 -103.0091 209° Southwest  Level Estimated

Login

Don't have an account? Register now (free) for customized features, flight alerts, and more!